Flight Track Log - Related Links

Times and Time Zones

All times are in EDT time to prevent confusion due to time zone crossing. See the SWA534 flight status page for this flight to view local times or setup timezone preferences in your user account.

Time Position Orientation Groundspeed Altitude Reporting Facility
EDT Latitude Longitude Course Direction KTS MPH feet Rate Location/Type
Wed 05:06:52 PM 33.9383 -118.5669 262° West 250 288 4,100  Level Los Angeles Center
Wed 05:07:54 PM 33.9492 -118.6558 278° West 279 321 6,900 2,371 Climbing Los Angeles Center
Wed 05:08:56 PM 34.0319 -118.6767 348° North 302 348 9,000 1,016 Climbing Los Angeles Center
Wed 05:09:58 PM 34.1008 -118.6586 12° North 314 361 9,000 1,210 Level Los Angeles Center
Wed 05:11:00 PM 34.2583 -118.6000 North  Level FlightAware Approximate
Wed 05:11:00 PM 34.2117 -118.6375 North 331 381 11,500  Level Los Angeles Center
Wed 05:12:03 PM 34.3100 -118.6650 347° North 361 415 14,200 2,256 Climbing Los Angeles Center
Wed 05:13:05 PM 34.4097 -118.6919 347° North 367 422 16,200 2,129 Climbing Los Angeles Center
Wed 05:14:07 PM 34.5147 -118.7211 347° North 384 442 18,600 2,081 Climbing Los Angeles Center
Wed 05:15:09 PM 34.6167 -118.7669 340° North 390 449 20,500 1,645 Climbing Los Angeles Center
Wed 05:16:11 PM 34.7175 -118.8206 336° Northwest 396 456 22,000 1,597 Climbing Los Angeles Center
Wed 05:17:13 PM 34.8411 -118.8981 333° Northwest 418 481 23,800 1,500 Climbing Los Angeles Center
Wed 05:18:15 PM 34.9236 -118.9789 321° Northwest 417 480 25,100 1,548 Climbing Los Angeles Center
Wed 05:19:17 PM 35.0153 -119.0689 321° Northwest 423 487 27,000 1,488 Climbing Los Angeles Center
Wed 05:20:20 PM 35.1283 -119.1772 322° Northwest 434 499 28,200 1,104 Climbing Los Angeles Center
Wed 05:21:22 PM 35.2258 -119.2725 321° Northwest 449 517 29,300 1,161 Climbing Los Angeles Center
Wed 05:22:24 PM 35.3222 -119.3689 321° Northwest 450 518 30,600 1,306 Climbing Los Angeles Center
Wed 05:23:26 PM 35.4192 -119.4631 322° Northwest 447 514 32,000 1,355 Climbing Los Angeles Center
Wed 05:24:28 PM 35.5197 -119.5631 321° Northwest 440 506 33,400 882 Climbing Los Angeles Center
Wed 05:25:42 PM 35.6267 -119.6703 321° Northwest 440 506 34,000 263 Climbing Los Angeles Center
Wed 05:26:45 PM 35.7406 -119.7853 321° Northwest 444 511 34,000  Level Los Angeles Center
Wed 05:28:05 PM 35.8722 -119.9172 321° Northwest 446 513 34,000  Level Oakland Center
Wed 05:29:07 PM 35.9681 -120.0147 321° Northwest 449 517 34,000  Level Oakland Center
Wed 05:30:08 PM 36.0628 -120.1114 320° Northwest 447 514 34,000  Level Oakland Center
Wed 05:31:10 PM 36.1603 -120.2081 321° Northwest 451 519 34,000  Level Oakland Center
Wed 05:32:11 PM 36.2564 -120.3078 320° Northwest 453 521 34,000 -49 Level Oakland Center
Wed 05:33:13 PM 36.3511 -120.4053 320° Northwest 447 514 33,900 -1,161 Descending Oakland Center
Wed 05:34:15 PM 36.4669 -120.5242 320° Northwest 451 519 31,600 -2,195 Descending Oakland Center
Wed 05:35:16 PM 36.5617 -120.6219 320° Northwest 446 513 29,400 -2,195 Descending Oakland Center
Wed 05:36:18 PM 36.6536 -120.7139 321° Northwest 434 499 27,100 -2,177 Descending Oakland Center
Wed 05:37:20 PM 36.7422 -120.8089 319° Northwest 424 488 24,900 -2,146 Descending Oakland Center
Wed 05:38:21 PM 36.8253 -120.9050 317° Northwest 406 467 22,700 -2,146 Descending Oakland Center
Wed 05:39:23 PM 36.9067 -121.0000 317° Northwest 402 463 20,500 -2,081 Descending Oakland Center
Wed 05:40:25 PM 36.9850 -121.0911 317° Northwest 388 447 18,400 -2,049 Descending Oakland Center
Wed 05:41:26 PM 37.0625 -121.1789 318° Northwest 373 429 16,300 -2,195 Descending Oakland Center
Wed 05:42:28 PM 37.1511 -121.2819 317° Northwest 365 420 13,900 -2,146 Descending Oakland Center
Wed 05:43:29 PM 37.2233 -121.3647 318° Northwest 353 406 11,900 -1,854 Descending Oakland Center
Wed 05:44:31 PM 37.2936 -121.4439 318° Northwest 343 395 10,100 -1,258 Descending Oakland Center
Wed 05:45:33 PM 37.3564 -121.5194 316° Northwest 317 365 9,300 -923 Descending Oakland Center
Wed 05:46:15 PM 37.4000 -121.5667 319° Northwest 290 334 8,500 -1,000 Descending Northern Cal TRACON
Wed 05:47:15 PM 37.4667 -121.6500 315° West 298 343 7,600 -950 Descending Northern Cal TRACON
Wed 05:48:15 PM 37.5167 -121.7167 313° West 301 346 6,600 -1,000 Descending Northern Cal TRACON
Wed 05:49:15 PM 37.5500 -121.8167 293° West 290 334 5,600 -1,000 Descending Northern Cal TRACON
Wed 05:50:15 PM 37.5667 -121.9167 282° West 282 325 4,600 -1,050 Descending Northern Cal TRACON
Wed 05:51:15 PM 37.6000 -122.0000 297° West 263 303 3,500 -750 Descending Northern Cal TRACON
Wed 05:52:15 PM 37.6167 -122.0833 284° West 223 257 3,100 -678 Descending Northern Cal TRACON
Wed 05:53:10 PM 37.6500 -122.1333 310° West 169 194 2,200 -1,050 Descending Northern Cal TRACON
Wed 05:54:15 PM 37.6667 -122.1667 302° West 139 160 1,000 -950 Descending Northern Cal TRACON
Wed 05:55:10 PM 37.7000 -122.2000 322° Northwest 131 151 300 -764 Descending Northern Cal TRACON
Wed 05:57:00 PM 37.7167 -122.2167 270° West  Level FlightAware Approximate
Wed 06:04:00 PM 37.7213 -122.2207 270° West  Level Estimated

Login

Don't have an account? Register now (free) for customized features, flight alerts, and more!